Time;durP1;ratioP1;P1;durP2;ratioP2;P2;SDS_P1;SDS_P2;PMS_P1;PMS_P2;Temp;Humidity;BMP_temperature;BMP_pressure;BME280_temperature;BME280_humidity;BME280_pressure;Samples;Min_cycle;Max_cycle;Signal;HPM_P1;HPM_P2
2023/04/16 00:00:11;;;;;;;13.88;4.38;;;;;;;6.80;100.00;101993.91;5241292;28;20535;-65
2023/04/16 00:02:42;;;;;;;14.33;3.73;;;;;;;6.77;100.00;101991.25;5241588;28;20038;-65
2023/04/16 00:05:13;;;;;;;12.47;4.33;;;;;;;6.77;100.00;101993.84;5241647;28;20025;-64
2023/04/16 00:07:45;;;;;;;10.60;3.77;;;;;;;6.73;100.00;101989.47;5241370;28;20149;-65
2023/04/16 00:10:16;;;;;;;14.00;4.50;;;;;;;6.82;100.00;101988.78;5240801;28;20508;-65
2023/04/16 00:12:47;;;;;;;11.60;3.73;;;;;;;6.97;100.00;101989.13;5241166;28;20049;-65
2023/04/16 00:15:19;;;;;;;9.93;4.10;;;;;;;6.85;100.00;101991.44;5242106;28;20098;-65
2023/04/16 00:17:50;;;;;;;10.67;3.80;;;;;;;6.84;100.00;101994.84;5245092;28;20445;-65
2023/04/16 00:20:22;;;;;;;10.63;4.13;;;;;;;6.87;100.00;101992.34;5244802;28;20037;-65
2023/04/16 00:22:53;;;;;;;14.23;4.00;;;;;;;6.87;100.00;101992.34;5245131;28;20473;-65
2023/04/16 00:25:24;;;;;;;8.33;4.13;;;;;;;6.87;100.00;101993.19;5245094;28;20037;-65
2023/04/16 00:27:56;;;;;;;9.87;3.57;;;;;;;6.82;100.00;101989.63;5244297;28;20025;-65
2023/04/16 00:30:27;;;;;;;12.27;4.60;;;;;;;6.88;100.00;101996.69;5244671;28;20076;-66
2023/04/16 00:32:58;;;;;;;12.30;5.03;;;;;;;6.93;100.00;101988.16;5243616;28;20056;-65
2023/04/16 00:35:30;;;;;;;13.50;4.00;;;;;;;6.94;100.00;101984.72;5243069;28;20045;-66
2023/04/16 00:38:01;;;;;;;11.40;5.47;;;;;;;6.93;100.00;101985.56;5244511;28;20395;-66
2023/04/16 00:40:32;;;;;;;11.57;4.37;;;;;;;6.95;100.00;101995.97;5244465;28;20139;-66
2023/04/16 00:43:04;;;;;;;14.23;5.60;;;;;;;6.93;100.00;101989.88;5245150;28;20044;-66
2023/04/16 00:45:36;;;;;;;15.13;4.50;;;;;;;6.97;100.00;101986.53;5244285;28;20116;-66
2023/04/16 00:48:07;;;;;;;10.47;4.50;;;;;;;6.93;100.00;101988.16;5244241;28;20477;-66
2023/04/16 00:50:38;;;;;;;12.37;5.00;;;;;;;7.00;100.00;101983.09;5244276;28;20034;-66
2023/04/16 00:53:10;;;;;;;12.60;4.60;;;;;;;7.04;100.00;101990.13;5244248;28;20053;-66
2023/04/16 00:55:42;;;;;;;13.43;5.20;;;;;;;7.01;100.00;101982.28;5244108;28;20120;-66
2023/04/16 00:58:14;;;;;;;11.18;4.50;;;;;;;7.01;100.00;101980.53;5242721;28;20107;-66
2023/04/16 01:00:46;;;;;;;11.40;4.53;;;;;;;7.11;100.00;101985.06;5243158;28;20034;-66
2023/04/16 01:03:17;;;;;;;12.73;5.07;;;;;;;7.05;100.00;101986.66;5244340;28;20064;-66
2023/04/16 01:05:49;;;;;;;11.57;5.10;;;;;;;7.00;100.00;101978.78;5243780;28;20041;-65
2023/04/16 01:08:20;;;;;;;15.15;5.20;;;;;;;7.07;100.00;101985.00;5244061;28;20389;-66
2023/04/16 01:10:52;;;;;;;13.57;5.77;;;;;;;7.04;100.00;101987.53;5243804;28;20038;-65
2023/04/16 01:13:23;;;;;;;12.37;5.47;;;;;;;7.03;100.00;101978.84;5243710;28;20068;-66
2023/04/16 01:15:55;;;;;;;12.37;5.83;;;;;;;7.04;100.00;101990.13;5243697;28;20025;-66
2023/04/16 01:18:26;;;;;;;9.90;5.53;;;;;;;7.16;100.00;101982.56;5243688;28;20037;-66
2023/04/16 01:20:57;;;;;;;12.73;5.00;;;;;;;7.11;100.00;101979.88;5243934;28;20026;-66
2023/04/16 01:23:29;;;;;;;12.47;4.83;;;;;;;7.10;100.00;101978.16;5244227;28;20096;-66
2023/04/16 01:26:01;;;;;;;12.38;5.50;;;;;;;7.09;100.00;101970.34;5243641;28;20032;-66
2023/04/16 01:28:32;;;;;;;14.87;6.07;;;;;;;7.14;100.00;101978.22;5242062;28;20488;-66
2023/04/16 01:31:03;;;;;;;15.57;5.70;;;;;;;7.20;100.00;101978.34;5243480;28;20068;-66
2023/04/16 01:33:35;;;;;;;9.53;5.67;;;;;;;7.20;100.00;101976.63;5243107;28;20564;-66
2023/04/16 01:36:06;;;;;;;16.77;7.07;;;;;;;7.18;100.00;101977.41;5241725;28;20107;-65
2023/04/16 01:38:38;;;;;;;13.80;6.23;;;;;;;7.15;100.00;101982.53;5242949;28;20040;-65
2023/04/16 01:41:09;;;;;;;11.97;5.80;;;;;;;7.17;100.00;101984.34;5241795;28;20041;-65
2023/04/16 01:43:41;;;;;;;14.90;7.10;;;;;;;7.15;100.00;101990.31;5243099;28;20381;-65
2023/04/16 01:46:17;;;;;;;16.40;6.57;;;;;;;7.11;100.00;101984.19;5242728;28;20604;-65
2023/04/16 01:48:48;;;;;;;13.57;6.53;;;;;;;7.14;100.00;101991.19;5243101;28;20385;-65
2023/04/16 01:51:20;;;;;;;16.07;6.80;;;;;;;7.08;100.00;101990.22;5242784;28;20029;-65
2023/04/16 01:53:52;;;;;;;12.15;6.88;;;;;;;7.07;100.00;101985.88;5243060;28;20498;-66
2023/04/16 01:56:24;;;;;;;14.07;6.77;;;;;;;7.13;100.00;101985.09;5243253;28;20033;-66
2023/04/16 01:58:55;;;;;;;13.93;7.33;;;;;;;7.10;100.00;101990.25;5242975;28;20145;-66
2023/04/16 02:01:27;;;;;;;16.80;7.23;;;;;;;7.08;100.00;101987.63;5242901;28;20029;-66
2023/04/16 02:03:59;;;;;;;14.05;7.00;;;;;;;7.12;100.00;101985.97;5243110;28;20469;-66
2023/04/16 02:06:30;;;;;;;15.10;8.00;;;;;;;7.10;100.00;101992.84;5241394;28;20091;-66
2023/04/16 02:09:02;;;;;;;17.40;7.93;;;;;;;7.09;100.00;101991.94;5242772;28;20108;-65
2023/04/16 02:11:33;;;;;;;14.47;7.80;;;;;;;7.14;100.00;101988.59;5241416;28;20111;-66
2023/04/16 02:14:04;;;;;;;19.33;7.13;;;;;;;7.17;100.00;101986.94;5242328;28;20044;-65
2023/04/16 02:16:36;;;;;;;15.93;7.33;;;;;;;7.19;100.00;101985.22;5242598;28;20381;-66
2023/04/16 02:19:07;;;;;;;12.53;7.70;;;;;;;7.21;100.00;101987.84;5242861;28;20084;-65
2023/04/16 02:21:39;;;;;;;13.87;7.83;;;;;;;7.20;100.00;101976.63;5242868;28;20477;-66
2023/04/16 02:24:10;;;;;;;14.73;8.93;;;;;;;7.18;100.00;101983.50;5242781;28;20034;-66
2023/04/16 02:26:41;;;;;;;14.67;7.67;;;;;;;7.18;100.00;101988.69;5242872;28;20049;-66
2023/04/16 02:29:13;;;;;;;9.80;7.37;;;;;;;7.20;100.00;101975.75;5240868;28;20409;-66
2023/04/16 02:31:45;;;;;;;13.77;7.73;;;;;;;7.18;100.00;101982.59;5242263;28;20075;-65
2023/04/16 02:34:16;;;;;;;17.97;8.43;;;;;;;7.15;100.00;101982.53;5242267;28;20021;-66
2023/04/16 02:36:48;;;;;;;19.97;8.73;;;;;;;7.17;100.00;101983.47;5242105;28;20136;-66
2023/04/16 02:39:19;;;;;;;12.20;7.50;;;;;;;7.20;100.00;101984.41;5240581;28;20029;-66
2023/04/16 02:41:51;;;;;;;13.40;8.23;;;;;;;7.20;100.00;101987.00;5241535;28;20476;-66
2023/04/16 02:44:22;;;;;;;13.80;7.67;;;;;;;7.20;100.00;101981.81;5242101;28;20092;-66
2023/04/16 02:46:53;;;;;;;12.00;7.67;;;;;;;7.22;100.00;101987.88;5242043;28;20037;-66
2023/04/16 02:49:25;;;;;;;15.37;8.17;;;;;;;7.25;100.00;101987.09;5241053;28;20026;-66
2023/04/16 02:51:56;;;;;;;15.50;7.17;;;;;;;7.29;100.00;101994.97;5241645;28;20093;-66
2023/04/16 02:54:27;;;;;;;11.30;6.80;;;;;;;7.27;100.00;101993.19;5241975;28;20389;-66
2023/04/16 02:56:59;;;;;;;18.53;7.27;;;;;;;7.26;100.00;102002.69;5241652;28;20045;-66
2023/04/16 02:59:30;;;;;;;11.97;7.47;;;;;;;7.34;100.00;101995.06;5241954;28;20026;-66
2023/04/16 03:02:02;;;;;;;11.23;5.63;;;;;;;7.34;100.00;101999.34;5242167;28;20065;-67
2023/04/16 03:04:33;;;;;;;12.57;6.63;;;;;;;7.31;100.00;102000.19;5241808;28;20033;-66
2023/04/16 03:07:05;;;;;;;12.47;6.53;;;;;;;7.35;100.00;101998.53;5241728;28;20038;-66
2023/04/16 03:09:36;;;;;;;10.20;6.17;;;;;;;7.33;100.00;101995.03;5240424;28;20029;-66
2023/04/16 03:12:08;;;;;;;14.80;7.07;;;;;;;7.34;100.00;101999.34;5241890;28;20041;-66
2023/04/16 03:14:39;;;;;;;16.37;7.10;;;;;;;7.36;100.00;102002.84;5241729;28;20163;-66
2023/04/16 03:17:10;;;;;;;12.17;7.43;;;;;;;7.37;100.00;102009.78;5241762;28;20037;-66
2023/04/16 03:19:42;;;;;;;11.63;6.63;;;;;;;7.33;100.00;102018.38;5241961;28;20059;-66
2023/04/16 03:22:13;;;;;;;12.63;6.97;;;;;;;7.42;100.00;102005.56;5240368;28;20033;-66
2023/04/16 03:24:45;;;;;;;13.03;7.23;;;;;;;7.37;100.00;102010.66;5241528;28;20042;-66
2023/04/16 03:27:16;;;;;;;12.70;7.03;;;;;;;7.38;100.00;102017.63;5241948;28;20041;-66
2023/04/16 03:29:47;;;;;;;11.50;7.43;;;;;;;7.38;100.00;102011.56;5240881;28;20029;-66
2023/04/16 03:32:19;;;;;;;12.53;7.07;;;;;;;7.39;100.00;102006.41;5240940;28;20032;-65
2023/04/16 03:34:50;;;;;;;13.40;9.00;;;;;;;7.34;100.00;102017.50;5241554;28;20029;-66
2023/04/16 03:37:22;;;;;;;13.27;9.07;;;;;;;7.44;100.00;102016.88;5241964;28;20141;-66
2023/04/16 03:39:53;;;;;;;14.07;8.80;;;;;;;7.39;100.00;102018.47;5240174;28;20033;-66
2023/04/16 03:42:24;;;;;;;15.70;9.63;;;;;;;7.38;100.00;102014.16;5240089;28;20029;-66
2023/04/16 03:44:56;;;;;;;15.53;9.00;;;;;;;7.39;100.00;102013.28;5241575;28;20099;-66
2023/04/16 03:47:27;;;;;;;15.93;9.47;;;;;;;7.33;100.00;102013.19;5241403;28;20065;-66
2023/04/16 03:49:59;;;;;;;15.03;10.37;;;;;;;7.26;100.00;102019.94;5241851;28;20029;-65
2023/04/16 03:52:30;;;;;;;18.33;12.00;;;;;;;7.27;100.00;102009.59;5244329;28;20045;-66
2023/04/16 03:55:02;;;;;;;15.77;10.47;;;;;;;7.33;100.00;102014.06;5245283;28;20033;-66
2023/04/16 03:57:34;;;;;;;16.75;12.50;;;;;;;7.33;100.00;102019.25;5245528;28;20397;-66
2023/04/16 04:00:08;;;;;;;22.30;13.57;;;;;;;7.27;100.00;102021.72;5245326;28;20030;-66
2023/04/16 04:02:39;;;;;;;21.17;13.75;;;;;;;7.21;100.00;102019.88;5245171;28;20029;-66
2023/04/16 04:05:10;;;;;;;19.13;13.10;;;;;;;7.24;100.00;102019.91;5243595;28;20036;-65
2023/04/16 04:07:42;;;;;;;17.53;13.47;;;;;;;7.29;100.00;102013.13;5245139;28;20057;-66
2023/04/16 04:10:13;;;;;;;18.33;13.57;;;;;;;7.26;100.00;102027.72;5244825;28;20087;-66
2023/04/16 04:12:45;;;;;;;17.83;14.47;;;;;;;7.23;100.00;102018.19;5244586;28;20048;-66
2023/04/16 04:15:17;;;;;;;18.80;14.63;;;;;;;7.23;100.00;102015.59;5245539;28;20029;-66
2023/04/16 04:17:48;;;;;;;23.67;15.10;;;;;;;7.25;100.00;102019.06;5244943;28;20026;-66
2023/04/16 04:20:19;;;;;;;18.37;14.63;;;;;;;7.20;100.00;102022.44;5244693;28;20029;-66
2023/04/16 04:22:51;;;;;;;20.10;13.97;;;;;;;7.18;100.00;102012.03;5244957;28;20030;-66
2023/04/16 04:25:22;;;;;;;23.87;15.13;;;;;;;7.16;100.00;102026.66;5244656;28;20462;-65
2023/04/16 04:27:54;;;;;;;21.03;13.03;;;;;;;7.15;100.00;102022.34;5244241;28;20037;-66
2023/04/16 04:30:25;;;;;;;20.07;14.53;;;;;;;7.11;100.00;102018.78;5243456;28;20370;-65
2023/04/16 04:32:57;;;;;;;22.93;14.33;;;;;;;7.14;100.00;102030.06;5245112;28;20430;-66
2023/04/16 04:35:28;;;;;;;18.23;13.10;;;;;;;7.16;100.00;102024.06;5244554;28;20065;-66
2023/04/16 04:38:02;;;;;;;16.80;12.73;;;;;;;7.14;100.00;102032.69;5244409;28;20516;-66
2023/04/16 04:40:33;;;;;;;21.60;13.75;;;;;;;7.18;100.00;102027.59;5244339;28;20437;-66
2023/04/16 04:43:04;;;;;;;18.63;13.73;;;;;;;7.15;100.00;102035.31;5243027;28;20033;-66
2023/04/16 04:45:36;;;;;;;18.17;13.63;;;;;;;7.20;100.00;102035.41;5243706;28;20505;-66
2023/04/16 04:48:07;;;;;;;17.07;13.20;;;;;;;7.19;100.00;102044.00;5243067;28;20389;-65
2023/04/16 04:50:39;;;;;;;20.23;13.93;;;;;;;7.17;100.00;102049.16;5243495;28;20092;-66
2023/04/16 04:53:13;;;;;;;23.73;15.27;;;;;;;7.16;100.00;102047.41;5244689;28;20468;-66
2023/04/16 04:55:44;;;;;;;19.08;12.73;;;;;;;7.21;100.00;102039.72;5243734;28;20033;-66
2023/04/16 04:58:16;;;;;;;20.67;13.40;;;;;;;7.22;100.00;102047.53;5243040;28;20025;-65
2023/04/16 05:00:47;;;;;;;21.33;14.10;;;;;;;7.21;100.00;102040.63;5242683;28;20389;-66
2023/04/16 05:03:22;;;;;;;24.43;13.57;;;;;;;7.23;100.00;102040.63;5243946;28;20496;-66
2023/04/16 05:05:54;;;;;;;22.95;15.27;;;;;;;7.19;100.00;102047.47;5243870;28;20029;-66
2023/04/16 05:08:25;;;;;;;23.20;14.37;;;;;;;7.21;100.00;102039.72;5243935;28;20034;-65
2023/04/16 05:10:57;;;;;;;18.50;13.83;;;;;;;7.23;100.00;102048.41;5243923;28;20036;-66
2023/04/16 05:13:28;;;;;;;21.93;12.73;;;;;;;7.21;100.00;102045.81;5225967;28;20057;-67
2023/04/16 05:16:00;;;;;;;20.27;15.00;;;;;;;7.20;100.00;102045.78;5243822;28;20457;-66
2023/04/16 05:18:32;;;;;;;22.07;13.73;;;;;;;7.26;100.00;102056.25;5243723;28;20032;-66
2023/04/16 05:21:03;;;;;;;21.17;13.43;;;;;;;7.21;100.00;102050.09;5243913;28;20030;-66
2023/04/16 05:23:35;;;;;;;20.67;14.40;;;;;;;7.25;100.00;102045.00;5243643;28;20535;-66
2023/04/16 05:26:06;;;;;;;16.73;12.63;;;;;;;7.26;100.00;102053.66;5243456;28;20040;-66
2023/04/16 05:28:37;;;;;;;19.70;12.73;;;;;;;7.26;100.00;102054.56;5242325;28;20131;-66
2023/04/16 05:31:09;;;;;;;24.00;14.43;;;;;;;7.22;100.00;102060.50;5243555;28;20052;-66
2023/04/16 05:33:40;;;;;;;20.17;12.07;;;;;;;7.26;100.00;102064.94;5243443;28;20057;-66
2023/04/16 05:36:12;;;;;;;22.17;13.40;;;;;;;7.27;100.00;102060.59;5243119;28;20503;-66
2023/04/16 05:38:43;;;;;;;22.83;13.73;;;;;;;7.29;100.00;102062.41;5243373;28;20061;-66
2023/04/16 05:41:14;;;;;;;21.07;13.37;;;;;;;7.33;100.00;102065.06;5243260;28;20041;-66
2023/04/16 05:43:46;;;;;;;18.40;11.87;;;;;;;7.37;100.00;102069.47;5242147;28;20037;-66
2023/04/16 05:46:17;;;;;;;22.13;13.63;;;;;;;7.33;100.00;102073.72;5243095;28;20036;-66
2023/04/16 05:48:48;;;;;;;24.47;13.37;;;;;;;7.32;100.00;102081.47;5243376;28;20029;-66
2023/04/16 05:51:21;;;;;;;20.13;13.27;;;;;;;7.29;100.00;102075.38;5243346;28;20514;-66
2023/04/16 05:53:53;;;;;;;21.90;12.88;;;;;;;7.28;100.00;102083.13;5243058;28;20120;-66
2023/04/16 05:56:24;;;;;;;23.57;14.53;;;;;;;7.28;100.00;102088.31;5243044;28;20123;-66
2023/04/16 05:58:56;;;;;;;21.47;13.80;;;;;;;7.35;100.00;102089.31;5243162;28;20068;-66
2023/04/16 06:01:27;;;;;;;24.37;13.90;;;;;;;7.36;100.00;102086.75;5242919;28;20109;-66
2023/04/16 06:03:59;;;;;;;23.63;13.00;;;;;;;7.36;100.00;102089.34;5242525;28;20037;-66
2023/04/16 06:06:30;;;;;;;18.30;12.93;;;;;;;7.39;100.00;102101.50;5242758;28;20371;-66
2023/04/16 06:09:02;;;;;;;27.97;15.33;;;;;;;7.42;100.00;102086.00;5242642;28;20128;-66
2023/04/16 06:11:34;;;;;;;20.98;12.95;;;;;;;7.42;100.00;102093.78;5242323;28;20420;-66
2023/04/16 06:14:05;;;;;;;25.10;14.37;;;;;;;7.41;100.00;102087.72;5242348;28;20037;-67
2023/04/16 06:16:37;;;;;;;23.10;14.80;;;;;;;7.51;100.00;102088.78;5241889;28;20040;-66
2023/04/16 06:19:08;;;;;;;23.87;14.13;;;;;;;7.48;100.00;102097.38;5242552;28;20033;-66
2023/04/16 06:21:40;;;;;;;31.70;20.33;;;;;;;7.53;100.00;102088.81;5242968;28;20362;-66
2023/04/16 06:24:12;;;;;;;26.30;14.57;;;;;;;7.54;100.00;102091.44;5242432;28;20513;-66
2023/04/16 06:26:43;;;;;;;27.40;16.63;;;;;;;7.48;100.00;102102.56;5242829;28;20030;-67
2023/04/16 06:29:15;;;;;;;21.27;13.97;;;;;;;7.50;100.00;102100.00;5242433;28;20041;-67
2023/04/16 06:31:47;;;;;;;27.33;14.57;;;;;;;7.44;100.00;102098.16;5241893;28;20036;-67
2023/04/16 06:34:18;;;;;;;25.60;14.57;;;;;;;7.48;100.00;102097.38;5242402;28;20022;-66
2023/04/16 06:36:50;;;;;;;24.37;14.07;;;;;;;7.55;100.00;102105.28;5241903;28;20065;-67
2023/04/16 06:39:21;;;;;;;23.63;14.70;;;;;;;7.59;100.00;102102.78;5241948;28;20030;-65
2023/04/16 06:41:53;;;;;;;19.70;12.37;;;;;;;7.69;100.00;102106.44;5241903;28;20037;-67
2023/04/16 06:44:24;;;;;;;24.23;14.50;;;;;;;7.63;100.00;102103.72;5241878;28;20116;-66
2023/04/16 06:46:56;;;;;;;21.80;13.67;;;;;;;7.65;100.00;102107.25;5241734;28;20034;-66
2023/04/16 06:49:27;;;;;;;29.07;14.33;;;;;;;7.66;100.00;102112.47;5241431;28;20053;-66
2023/04/16 06:51:58;;;;;;;24.20;13.73;;;;;;;7.65;100.00;102120.22;5242217;28;20041;-65
2023/04/16 06:54:30;;;;;;;21.53;13.90;;;;;;;7.71;100.00;102127.25;5240275;28;20121;-66
2023/04/16 06:57:01;;;;;;;22.37;13.83;;;;;;;7.72;100.00;102129.88;5241563;28;20136;-66
2023/04/16 06:59:33;;;;;;;26.60;13.50;;;;;;;7.75;100.00;102126.47;5242218;28;20025;-66
2023/04/16 07:02:04;;;;;;;22.67;14.47;;;;;;;7.70;100.00;102130.72;5241735;28;20108;-65
2023/04/16 07:04:36;;;;;;;27.47;13.73;;;;;;;7.66;100.00;102128.03;5241550;28;20492;-66
2023/04/16 07:07:07;;;;;;;22.97;13.70;;;;;;;7.71;100.00;102135.03;5240435;28;20032;-66
2023/04/16 07:09:39;;;;;;;23.57;13.87;;;;;;;7.69;100.00;102137.59;5241685;28;20029;-66
2023/04/16 07:12:10;;;;;;;24.90;14.70;;;;;;;7.71;100.00;102140.22;5241711;28;20076;-65
2023/04/16 07:14:42;;;;;;;26.63;14.67;;;;;;;7.67;100.00;102145.34;5241626;28;20032;-65
2023/04/16 07:17:13;;;;;;;22.67;14.67;;;;;;;7.74;100.00;102148.06;5241854;28;20108;-66
2023/04/16 07:19:45;;;;;;;37.10;17.30;;;;;;;7.75;100.00;102142.06;5241344;28;20026;-66
2023/04/16 07:22:16;;;;;;;49.23;40.27;;;;;;;7.79;100.00;102155.13;5240383;28;20115;-66
2023/04/16 07:24:48;;;;;;;25.73;17.10;;;;;;;7.82;100.00;102149.09;5243030;28;20091;-67
2023/04/16 07:27:19;;;;;;;28.17;16.00;;;;;;;7.78;100.00;102152.50;5244793;28;20412;-67
2023/04/16 07:29:50;;;;;;;25.50;16.93;;;;;;;7.77;100.00;102164.59;5244308;28;20034;-66
2023/04/16 07:32:22;;;;;;;25.77;17.13;;;;;;;7.81;100.00;102165.56;5245800;28;20041;-67
2023/04/16 07:34:54;;;;;;;28.27;16.57;;;;;;;7.81;100.00;102162.94;5245386;28;20496;-66
2023/04/16 07:37:26;;;;;;;28.70;16.52;;;;;;;7.78;100.00;102163.75;5243970;28;20099;-67
2023/04/16 07:39:58;;;;;;;32.57;16.77;;;;;;;7.81;100.00;102165.56;5245689;28;20029;-66
2023/04/16 07:42:30;;;;;;;23.50;15.85;;;;;;;7.86;100.00;102169.13;5245400;28;20045;-66
2023/04/16 07:45:01;;;;;;;29.37;16.43;;;;;;;7.88;100.00;102166.56;5245509;28;20351;-66
2023/04/16 07:47:32;;;;;;;26.13;16.37;;;;;;;7.88;100.00;102166.56;5244377;28;20037;-66
2023/04/16 07:50:04;;;;;;;30.00;17.13;;;;;;;7.95;100.00;102174.50;5245328;28;20079;-66
2023/04/16 07:52:40;;;;;;;31.88;18.13;;;;;;;7.98;100.00;102168.47;5245687;28;20045;-66
2023/04/16 07:55:11;;;;;;;32.25;18.00;;;;;;;8.00;100.00;102180.66;5244123;28;20045;-66
2023/04/16 07:57:42;;;;;;;32.83;18.73;;;;;;;8.03;100.00;102177.22;5245919;28;20033;-68
2023/04/16 08:00:14;;;;;;;23.50;15.93;;;;;;;8.09;100.00;102185.16;5244358;28;20045;-67
2023/04/16 08:02:45;;;;;;;31.77;18.47;;;;;;;8.11;100.00;102178.25;5245957;28;20028;-67
2023/04/16 08:05:17;;;;;;;28.37;17.03;;;;;;;8.10;100.00;102186.91;5246021;28;20034;-66
2023/04/16 08:07:48;;;;;;;28.83;18.17;;;;;;;8.12;100.00;102193.00;5243374;28;20481;-65
2023/04/16 08:10:20;;;;;;;31.37;19.53;;;;;;;8.14;100.00;102199.09;5244145;28;20184;-65
2023/04/16 08:12:51;;;;;;;35.47;18.10;;;;;;;8.14;100.00;102191.31;5244787;28;20064;-66
2023/04/16 08:15:22;;;;;;;33.37;18.97;;;;;;;8.17;100.00;102191.38;5245159;28;20048;-65
2023/04/16 08:17:54;;;;;;;33.93;19.27;;;;;;;8.13;100.00;102197.38;5243504;28;20048;-65
2023/04/16 08:20:25;;;;;;;33.63;18.30;;;;;;;8.17;100.00;102206.09;5244905;28;20037;-65
2023/04/16 08:22:57;;;;;;;31.17;18.17;;;;;;;8.12;100.00;102206.00;5245263;28;20465;-65
2023/04/16 08:25:28;;;;;;;31.20;17.87;;;;;;;8.13;100.00;102212.06;5245197;28;20038;-65
2023/04/16 08:28:00;;;;;;;34.43;19.37;;;;;;;8.17;100.00;102213.88;5245300;28;20033;-66
2023/04/16 08:30:31;;;;;;;38.37;18.23;;;;;;;8.19;100.00;102215.66;5244686;28;20029;-67
2023/04/16 08:33:02;;;;;;;34.37;19.03;;;;;;;8.22;100.00;102207.03;5244347;28;20069;-64
2023/04/16 08:35:34;;;;;;;40.10;23.77;;;;;;;8.31;100.00;102216.75;5244102;28;20037;-64
2023/04/16 08:38:06;;;;;;;33.70;19.20;;;;;;;8.30;100.00;102213.25;5243873;28;20071;-67
2023/04/16 08:40:40;;;;;;;37.97;19.88;;;;;;;8.28;100.00;102211.50;5244175;28;20041;-66
2023/04/16 08:43:14;;;;;;;39.00;22.02;;;;;;;8.32;100.00;102213.28;5244300;28;20025;-66
2023/04/16 08:45:46;;;;;;;29.77;18.48;;;;;;;8.31;100.00;102222.81;5244153;28;20025;-67
2023/04/16 08:48:20;;;;;;;31.27;18.13;;;;;;;8.29;100.00;102223.63;5244173;28;20036;-66
2023/04/16 08:50:53;;;;;;;32.80;18.88;;;;;;;8.34;100.00;102214.19;5244756;28;20303;-66
2023/04/16 08:53:32;;;;;;;42.35;19.95;;;;;;;8.42;100.00;102225.63;5242928;28;20030;-66
2023/04/16 08:56:04;;;;;;;33.75;18.27;;;;;;;8.40;100.00;102228.22;5244853;28;20056;-66
2023/04/16 08:58:36;;;;;;;;;;;;;;;8.57;100.00;102227.69;5244323;28;20091;-66
2023/04/16 09:01:10;;;;;;;29.23;17.92;;;;;;;8.51;100.00;102232.75;5244546;28;19909;-66
2023/04/16 09:03:43;;;;;;;30.58;17.35;;;;;;;8.55;100.00;102226.78;5243945;28;20033;-66
2023/04/16 09:06:15;;;;;;;34.55;18.60;;;;;;;8.63;100.00;102224.31;5243285;28;20029;-66
2023/04/16 09:08:48;;;;;;;28.58;17.95;;;;;;;8.66;100.00;102229.56;5244383;28;20033;-66
2023/04/16 09:11:19;;;;;;;35.25;19.08;;;;;;;8.75;100.00;102238.41;5225698;28;20044;-66
2023/04/16 09:13:51;;;;;;;33.13;18.17;;;;;;;8.76;100.00;102244.50;5243062;28;20029;-66
2023/04/16 09:16:23;;;;;;;36.63;18.47;;;;;;;8.71;100.00;102238.31;5243692;28;20249;-66
2023/04/16 09:18:55;;;;;;;31.65;17.63;;;;;;;8.87;100.00;102242.06;5243625;28;20022;-66
2023/04/16 09:21:27;;;;;;;30.10;15.70;;;;;;;8.77;100.00;102241.03;5243458;28;20128;-64
2023/04/16 09:23:59;;;;;;;33.13;17.07;;;;;;;8.76;100.00;102240.16;5242187;28;20030;-64
2023/04/16 09:26:31;;;;;;;36.58;19.25;;;;;;;8.80;100.00;102245.41;5243882;28;20061;-64
2023/04/16 09:29:02;;;;;;;34.15;18.23;;;;;;;8.73;100.00;102241.84;5242841;28;20047;-64
2023/04/16 09:31:33;;;;;;;40.17;18.23;;;;;;;8.80;100.00;102248.03;5243617;28;20041;-65
2023/04/16 09:34:08;;;;;;;32.37;17.67;;;;;;;8.78;100.00;102250.59;5243364;28;20025;-65
2023/04/16 09:36:40;;;;;;;30.95;17.52;;;;;;;8.74;100.00;102251.38;5242919;28;20087;-65
2023/04/16 09:39:18;;;;;;;28.37;16.67;;;;;;;8.76;100.00;102260.09;5243281;28;20053;-65
2023/04/16 09:41:53;;;;;;;36.00;18.25;;;;;;;8.78;100.00;102265.31;5243424;28;20022;-65
2023/04/16 09:44:35;;;;;;;37.10;17.15;;;;;;;8.86;100.00;102269.81;5242915;28;20091;-65
2023/04/16 09:47:08;;;;;;;34.13;17.80;;;;;;;8.84;100.00;102262.81;5242473;28;20034;-66
2023/04/16 09:49:41;;;;;;;29.58;17.25;;;;;;;8.82;100.00;102273.19;5242842;28;20052;-65
2023/04/16 09:52:21;;;;;;;28.25;17.70;;;;;;;8.77;100.00;102267.03;5243171;28;20052;-65
2023/04/16 09:54:52;;;;;;;29.08;16.95;;;;;;;8.81;100.00;102273.19;5243427;28;20120;-65
2023/04/16 09:57:24;;;;;;;33.13;17.20;;;;;;;8.86;100.00;102280.22;5242871;28;20116;-65
2023/04/16 10:00:04;;;;;;;26.87;16.87;;;;;;;8.91;100.00;102272.50;5242805;28;20378;-65
2023/04/16 10:02:40;;;;;;;29.77;17.25;;;;;;;8.87;100.00;102281.06;5242583;28;20067;-65
2023/04/16 10:05:17;;;;;;;39.17;17.88;;;;;;;8.90;100.00;102275.94;5242559;28;20057;-65
2023/04/16 10:07:49;;;;;;;26.75;16.23;;;;;;;8.90;100.00;102273.31;5241399;28;20049;-65
2023/04/16 10:10:21;;;;;;;36.30;17.55;;;;;;;8.89;100.00;102277.66;5243269;28;20037;-65
2023/04/16 10:12:54;;;;;;;28.67;16.60;;;;;;;8.90;100.00;102276.81;5243015;28;20080;-65
2023/04/16 10:15:26;;;;;;;24.95;16.80;;;;;;;8.88;100.00;102282.84;5242505;28;20077;-65
2023/04/16 10:17:59;;;;;;;30.23;17.60;;;;;;;8.88;100.00;102278.50;5241034;28;20026;-65
2023/04/16 10:20:30;;;;;;;33.47;18.48;;;;;;;8.90;100.00;102278.53;5242539;28;20376;-65
2023/04/16 10:23:02;;;;;;;28.90;17.33;;;;;;;8.97;100.00;102271.72;5242185;28;20067;-65
2023/04/16 10:25:33;;;;;;;32.30;18.23;;;;;;;8.97;100.00;102277.81;5241681;28;20381;-65
2023/04/16 10:28:06;;;;;;;29.23;17.77;;;;;;;9.08;100.00;102277.97;5242348;28;20064;-65
2023/04/16 10:30:38;;;;;;;32.42;18.63;;;;;;;9.11;100.00;102280.63;5240761;28;20109;-65
2023/04/16 10:33:10;;;;;;;26.92;17.90;;;;;;;9.11;100.00;102286.72;5241885;28;20052;-65
2023/04/16 10:35:44;;;;;;;29.05;16.00;;;;;;;9.12;100.00;102288.47;5242005;28;20055;-65
2023/04/16 10:38:26;;;;;;;31.77;18.63;;;;;;;9.17;100.00;102280.75;5243040;28;20080;-65
2023/04/16 10:41:02;;;;;;;26.30;17.10;;;;;;;9.06;100.00;102288.34;5243005;28;20033;-65
2023/04/16 10:43:40;;;;;;;27.20;18.55;;;;;;;9.10;100.00;102291.91;5240584;28;20124;-65
2023/04/16 10:46:23;;;;;;;26.55;17.80;;;;;;;9.09;100.00;102293.59;5242167;28;20068;-65
2023/04/16 10:48:55;;;;;;;28.13;17.05;;;;;;;9.04;100.00;102294.41;5242082;28;20099;-65
2023/04/16 10:51:32;;;;;;;36.83;18.05;;;;;;;8.97;100.00;102296.00;5240702;28;20036;-65
2023/04/16 10:54:07;;;;;;;32.13;18.05;;;;;;;9.00;100.00;102290.88;5241960;28;20104;-65
2023/04/16 10:56:38;;;;;;;25.17;16.92;;;;;;;9.04;100.00;102289.19;5242045;28;20026;-65
2023/04/16 10:59:10;;;;;;;28.87;18.43;;;;;;;9.12;100.00;102293.66;5241681;28;20032;-65
2023/04/16 11:01:44;;;;;;;29.23;18.50;;;;;;;9.04;100.00;102294.41;5241881;28;20507;-65
2023/04/16 11:04:18;;;;;;;26.83;17.17;;;;;;;9.12;100.00;102287.59;5241705;28;20025;-65
2023/04/16 11:07:12;;;;;;;31.60;17.65;;;;;;;9.18;100.00;102287.72;5241507;28;20025;-65
2023/04/16 11:09:56;;;;;;;27.98;17.70;;;;;;;9.19;100.00;102281.63;5241620;28;20025;-65
2023/04/16 11:12:36;;;;;;;30.50;18.95;;;;;;;9.16;100.00;102284.22;5241261;28;20036;-65
2023/04/16 11:15:13;;;;;;;24.23;18.60;;;;;;;9.27;100.00;102286.97;5241683;28;20034;-65
2023/04/16 11:17:50;;;;;;;25.95;16.85;;;;;;;9.37;100.00;102282.78;5241602;28;20108;-66
2023/04/16 11:20:26;;;;;;;24.77;17.67;;;;;;;9.44;100.00;102287.25;5241695;28;20465;-65
2023/04/16 11:22:58;;;;;;;29.35;17.63;;;;;;;9.52;100.00;102293.47;5241263;28;20105;-65
2023/04/16 11:25:30;;;;;;;25.63;17.27;;;;;;;9.64;100.00;102288.47;5241634;28;20037;-65
2023/04/16 11:28:01;;;;;;;21.60;16.08;;;;;;;9.56;100.00;102282.22;5241528;28;20025;-65
2023/04/16 11:30:37;;;;;;;23.03;15.63;;;;;;;9.58;100.00;102282.25;5240342;28;20496;-65
2023/04/16 11:33:10;;;;;;;24.35;16.58;;;;;;;9.45;100.00;102295.09;5241699;28;20044;-65